WetterOnline ( https://www.wetteronline.de )

Wetter aktuell Quiddelbach

Aktuelles Wetter: Andernach (75m)

6-stündlich | Neueste Meldungen
Ortszeit Temperatur Wetter
Fr, 17.09. 8:00 11.2° C bedeckt
Fr, 17.09. 2:00 10.2° C wolkenlos
Do, 16.09. 20:00 17.7° C bewölkt
Do, 16.09. 14:00 18.7° C bewölkt
Do, 16.09. 8:00 14.7° C wolkig
Do, 16.09. 2:00 17.4° C bedeckt
Mi, 15.09. 20:00 19.5° C bewölkt
Mi, 15.09. 14:00 21.8° C leichter Regen
Ortszeit Temperatur Wetter
Fr, 17.09. 9:00 11.9° C bedeckt
Fr, 17.09. 8:50 11.9° C bedeckt
Fr, 17.09. 8:40 11.8° C bedeckt
Fr, 17.09. 8:30 11.6° C bedeckt
Fr, 17.09. 8:20 11.6° C bedeckt
Fr, 17.09. 8:10 11.6° C Nebel
Fr, 17.09. 8:00 11.2° C bedeckt
Fr, 17.09. 7:30 10.2° C bewölkt
Fr, 17.09. 7:00 10.2° C bedeckt
Fr, 17.09. 6:30 10.3° C bedeckt
Fr, 17.09. 6:00 10.1° C bedeckt
Ortszeit Relative Feuchte Sichtweite
Fr, 17.09. 8:00 97% 4.7 km
Fr, 17.09. 2:00 98% 5.0 km
Do, 16.09. 20:00 72% 55 km
Do, 16.09. 14:00 63% 55 km
Do, 16.09. 8:00 82% 30 km
Do, 16.09. 2:00 85% 30 km
Mi, 15.09. 20:00 94% 45 km
Mi, 15.09. 14:00 89% 18 km
Ortszeit Relative Feuchte Sichtweite
Fr, 17.09. 9:00 94% 12 km
Fr, 17.09. 8:50 94% -
Fr, 17.09. 8:40 95% -
Fr, 17.09. 8:30 99% 1.1 km
Fr, 17.09. 8:20 99% -
Fr, 17.09. 8:10 99% -
Fr, 17.09. 8:00 97% 4.7 km
Fr, 17.09. 7:30 96% 12 km
Fr, 17.09. 7:00 97% 14 km
Fr, 17.09. 6:30 97% 12 km
Fr, 17.09. 6:00 97% 13 km
Ortszeit Niederschlagsmenge Niederschlagsart
Fr, 17.09. 8:00 0.0 l/m2 in 12 Std. -
Fr, 17.09. 2:00 0.0 l/m2 in 6 Std. -
Do, 16.09. 20:00 0.0 l/m2 in 12 Std. -
Do, 16.09. 14:00 0.1 l/m2 in 6 Std. -
Do, 16.09. 8:00 0.1 l/m2 in 12 Std. Regen
Do, 16.09. 2:00 0.1 l/m2 in 6 Std. Regen
Mi, 15.09. 20:00 5 l/m2 in 12 Std. Regen
Mi, 15.09. 14:00 4 l/m2 in 6 Std. Regen
Ortszeit Niederschlagsmenge Niederschlagsart
Fr, 17.09. 9:00 0.0 l/m2 in 1 Std. -
Fr, 17.09. 8:50 keine Meldung -
Fr, 17.09. 8:40 keine Meldung -
Fr, 17.09. 8:30 0.0 l/m2 in 1 Std. -
Fr, 17.09. 8:20 keine Meldung -
Fr, 17.09. 8:10 keine Meldung -
Fr, 17.09. 8:00 0.0 l/m2 in 1 Std. -
Fr, 17.09. 7:30 0.0 l/m2 in 1 Std. -
Fr, 17.09. 7:00 0.0 l/m2 in 1 Std. -
Fr, 17.09. 6:30 0.0 l/m2 in 1 Std. -
Fr, 17.09. 6:00 0.0 l/m2 in 1 Std. -
Ortszeit Stärke Spitze Richtung
km/h Bft. km/h Grad Sektor
Fr, 17.09. 8:00 6 1 7 200° S
Fr, 17.09. 2:00 4 1 7 150° SO
Do, 16.09. 20:00 4 1 25 320° NW
Do, 16.09. 14:00 11 2 25 320° NW
Do, 16.09. 8:00 7 2 22 300° NW
Do, 16.09. 2:00 9 2 26 320° NW
Mi, 15.09. 20:00 0 0 29 - -
Mi, 15.09. 14:00 4 1 11 190° S
Ortszeit Stärke Spitze Richtung
km/h Bft. km/h Grad Sektor
Fr, 17.09. 9:00 4 1 7 200° S
Fr, 17.09. 8:50 4 1 - 200° S
Fr, 17.09. 8:40 4 1 - 220° SW
Fr, 17.09. 8:30 4 1 7 220° SW
Fr, 17.09. 8:20 4 1 - 220° SW
Fr, 17.09. 8:10 4 1 - 240° SW
Fr, 17.09. 8:00 6 1 7 200° S
Fr, 17.09. 7:30 4 1 7 210° SW
Fr, 17.09. 7:00 4 1 4 180° S
Fr, 17.09. 6:30 4 1 4 180° S
Fr, 17.09. 6:00 4 1 4 190° S
Ortszeit Untergrenze Bedeckung Gattung
total tief tief mittel hoch
Fr, 17.09. 8:00 60 m 8/8 8/8 - - -
Fr, 17.09. 2:00 - 0/8 0/8 - - -
Do, 16.09. 20:00 1800 m 7/8 7/8 - - -
Do, 16.09. 14:00 1110 m 7/8 7/8 - - -
Do, 16.09. 8:00 450 m 6/8 6/8 - - -
Do, 16.09. 2:00 450 m 8/8 8/8 - - -
Mi, 15.09. 20:00 1800 m 8/8 7/8 - - -
Mi, 15.09. 14:00 2100 m 8/8 8/8 - - -
Ortszeit Bedeckungsgrad in Achtel und Wolkenuntergrenze
Fr, 17.09. 9:00 8(90m)
Fr, 17.09. 8:50 8(90m)
Fr, 17.09. 8:40 8(90m)
Fr, 17.09. 8:30 8(30m)
Fr, 17.09. 8:20 8(30m)
Fr, 17.09. 8:10 8(30m)
Fr, 17.09. 8:00 8(60m)
Fr, 17.09. 7:30 7(90m) 7(2100m)
Fr, 17.09. 7:00 1(150m) 8(2100m)
Fr, 17.09. 6:30 8(2100m)
Fr, 17.09. 6:00 8(2100m)
Ortszeit Luftdruck NN (hPa) Tendenz (hPa in 3 Std.)
Fr, 17.09. 8:00 1018 - 0,2
Fr, 17.09. 2:00 1019 + 0,5
Do, 16.09. 20:00 1017 + 0,4
Do, 16.09. 14:00 1017 - 0,2
Do, 16.09. 8:00 1017 + 1,2
Do, 16.09. 2:00 1014 + 0,7
Mi, 15.09. 20:00 1012 + 1,3
Mi, 15.09. 14:00 1011 - 0,9
Ortszeit Luftdruck NN (hPa) Tendenz (hPa in 3 Std.)
Fr, 17.09. 9:00 1018 + 0,2
Fr, 17.09. 8:50 1018 keine Meldung
Fr, 17.09. 8:40 1018 keine Meldung
Fr, 17.09. 8:30 1018 + 0,1
Fr, 17.09. 8:20 1018 keine Meldung
Fr, 17.09. 8:10 1018 keine Meldung
Fr, 17.09. 8:00 1018 - 0,2
Fr, 17.09. 7:30 1018 - 0,5
Fr, 17.09. 7:00 1018 - 0,6
Fr, 17.09. 6:30 1018 - 0,8
Fr, 17.09. 6:00 1018 - 0,8
Ortszeit Schneehöhe (cm)
Fr, 17.09. 8:00 -
Fr, 17.09. 2:00 -
Do, 16.09. 20:00 -
Do, 16.09. 14:00 -
Do, 16.09. 8:00 -
Do, 16.09. 2:00 -
Mi, 15.09. 20:00 -
Mi, 15.09. 14:00 -
Ortszeit Schneehöhe (cm)
Fr, 17.09. 9:00 -
Fr, 17.09. 8:50 -
Fr, 17.09. 8:40 -
Fr, 17.09. 8:30 -
Fr, 17.09. 8:20 -
Fr, 17.09. 8:10 -
Fr, 17.09. 8:00 -
Fr, 17.09. 7:30 -
Fr, 17.09. 7:00 -
Fr, 17.09. 6:30 -
Fr, 17.09. 6:00 -
Link zu dieser Seite / Seite empfehlen

Das Wetter in ...